sensor_id;sensor_type;location;lat;lon;timestamp;P1;durP1;ratioP1;P2;durP2;ratioP2
59062;SDS011;44851;45.648;9.004;2022-08-19T00:01:47;1.30;;;1.20;;
59062;SDS011;44851;45.648;9.004;2022-08-19T00:04:14;1.27;;;1.17;;
59062;SDS011;44851;45.648;9.004;2022-08-19T00:06:41;1.83;;;1.03;;
59062;SDS011;44851;45.648;9.004;2022-08-19T00:09:09;1.30;;;1.13;;
59062;SDS011;44851;45.648;9.004;2022-08-19T00:11:37;2.17;;;1.13;;
59062;SDS011;44851;45.648;9.004;2022-08-19T00:14:04;1.77;;;1.37;;
59062;SDS011;44851;45.648;9.004;2022-08-19T00:16:32;2.37;;;1.30;;
59062;SDS011;44851;45.648;9.004;2022-08-19T00:18:57;3.33;;;1.60;;
59062;SDS011;44851;45.648;9.004;2022-08-19T00:21:24;2.30;;;1.67;;
59062;SDS011;44851;45.648;9.004;2022-08-19T00:23:51;1.43;;;1.20;;
59062;SDS011;44851;45.648;9.004;2022-08-19T00:26:18;3.30;;;1.47;;
59062;SDS011;44851;45.648;9.004;2022-08-19T00:28:43;2.10;;;1.47;;
59062;SDS011;44851;45.648;9.004;2022-08-19T00:31:09;2.47;;;1.50;;
59062;SDS011;44851;45.648;9.004;2022-08-19T00:33:34;2.17;;;1.77;;
59062;SDS011;44851;45.648;9.004;2022-08-19T00:36:01;2.87;;;1.83;;
59062;SDS011;44851;45.648;9.004;2022-08-19T00:38:29;2.70;;;1.63;;
59062;SDS011;44851;45.648;9.004;2022-08-19T00:40:55;4.53;;;2.00;;
59062;SDS011;44851;45.648;9.004;2022-08-19T00:43:22;2.17;;;1.50;;
59062;SDS011;44851;45.648;9.004;2022-08-19T00:45:50;2.63;;;1.70;;
59062;SDS011;44851;45.648;9.004;2022-08-19T00:48:16;2.00;;;1.70;;
59062;SDS011;44851;45.648;9.004;2022-08-19T00:50:42;2.13;;;1.70;;
59062;SDS011;44851;45.648;9.004;2022-08-19T00:53:10;3.47;;;2.00;;
59062;SDS011;44851;45.648;9.004;2022-08-19T00:55:37;1.87;;;1.60;;
59062;SDS011;44851;45.648;9.004;2022-08-19T00:58:06;2.90;;;2.00;;
59062;SDS011;44851;45.648;9.004;2022-08-19T01:00:35;3.90;;;2.13;;
59062;SDS011;44851;45.648;9.004;2022-08-19T01:03:06;2.93;;;2.20;;
59062;SDS011;44851;45.648;9.004;2022-08-19T01:05:36;4.23;;;2.30;;
59062;SDS011;44851;45.648;9.004;2022-08-19T01:08:04;4.47;;;2.40;;
59062;SDS011;44851;45.648;9.004;2022-08-19T01:10:32;4.57;;;2.77;;
59062;SDS011;44851;45.648;9.004;2022-08-19T01:13:01;3.23;;;2.40;;
59062;SDS011;44851;45.648;9.004;2022-08-19T01:15:35;4.83;;;2.50;;
59062;SDS011;44851;45.648;9.004;2022-08-19T01:18:08;4.20;;;2.70;;
59062;SDS011;44851;45.648;9.004;2022-08-19T01:20:36;3.37;;;2.60;;
59062;SDS011;44851;45.648;9.004;2022-08-19T01:23:02;5.67;;;2.97;;
59062;SDS011;44851;45.648;9.004;2022-08-19T01:25:32;4.57;;;2.60;;
59062;SDS011;44851;45.648;9.004;2022-08-19T01:28:06;3.97;;;2.40;;
59062;SDS011;44851;45.648;9.004;2022-08-19T01:30:33;3.20;;;2.37;;
59062;SDS011;44851;45.648;9.004;2022-08-19T01:33:00;4.27;;;2.30;;
59062;SDS011;44851;45.648;9.004;2022-08-19T01:35:27;4.00;;;2.70;;
59062;SDS011;44851;45.648;9.004;2022-08-19T01:37:58;4.97;;;2.60;;
59062;SDS011;44851;45.648;9.004;2022-08-19T01:40:27;2.77;;;2.53;;
59062;SDS011;44851;45.648;9.004;2022-08-19T01:42:55;4.60;;;2.13;;
59062;SDS011;44851;45.648;9.004;2022-08-19T01:45:22;4.03;;;2.30;;
59062;SDS011;44851;45.648;9.004;2022-08-19T01:47:48;3.10;;;2.17;;
59062;SDS011;44851;45.648;9.004;2022-08-19T01:50:14;2.90;;;2.30;;
59062;SDS011;44851;45.648;9.004;2022-08-19T01:52:41;2.70;;;2.10;;
59062;SDS011;44851;45.648;9.004;2022-08-19T01:55:10;4.47;;;2.40;;
59062;SDS011;44851;45.648;9.004;2022-08-19T01:57:42;3.73;;;2.47;;
59062;SDS011;44851;45.648;9.004;2022-08-19T02:00:12;2.67;;;2.17;;
59062;SDS011;44851;45.648;9.004;2022-08-19T02:02:40;2.20;;;2.00;;
59062;SDS011;44851;45.648;9.004;2022-08-19T02:05:06;2.90;;;1.90;;
59062;SDS011;44851;45.648;9.004;2022-08-19T02:07:33;2.30;;;2.03;;
59062;SDS011;44851;45.648;9.004;2022-08-19T02:10:00;3.27;;;1.87;;
59062;SDS011;44851;45.648;9.004;2022-08-19T02:12:28;3.57;;;2.23;;
59062;SDS011;44851;45.648;9.004;2022-08-19T02:14:54;2.80;;;1.97;;
59062;SDS011;44851;45.648;9.004;2022-08-19T02:17:19;3.33;;;2.87;;
59062;SDS011;44851;45.648;9.004;2022-08-19T02:19:45;4.13;;;2.53;;
59062;SDS011;44851;45.648;9.004;2022-08-19T02:22:10;4.13;;;2.53;;
59062;SDS011;44851;45.648;9.004;2022-08-19T02:24:36;2.87;;;2.20;;
59062;SDS011;44851;45.648;9.004;2022-08-19T02:27:01;2.93;;;2.60;;
59062;SDS011;44851;45.648;9.004;2022-08-19T02:29:27;4.20;;;2.80;;
59062;SDS011;44851;45.648;9.004;2022-08-19T02:31:52;3.17;;;2.67;;
59062;SDS011;44851;45.648;9.004;2022-08-19T02:34:18;2.90;;;2.33;;
59062;SDS011;44851;45.648;9.004;2022-08-19T02:36:43;3.10;;;2.30;;
59062;SDS011;44851;45.648;9.004;2022-08-19T02:39:09;2.40;;;2.20;;
59062;SDS011;44851;45.648;9.004;2022-08-19T02:41:35;4.33;;;2.20;;
59062;SDS011;44851;45.648;9.004;2022-08-19T02:44:01;3.67;;;1.70;;
59062;SDS011;44851;45.648;9.004;2022-08-19T02:46:30;2.43;;;1.70;;
59062;SDS011;44851;45.648;9.004;2022-08-19T02:49:00;1.83;;;1.70;;
59062;SDS011;44851;45.648;9.004;2022-08-19T02:51:29;2.83;;;1.60;;
59062;SDS011;44851;45.648;9.004;2022-08-19T02:54:00;1.70;;;1.60;;
59062;SDS011;44851;45.648;9.004;2022-08-19T02:56:26;2.90;;;1.80;;
59062;SDS011;44851;45.648;9.004;2022-08-19T02:58:52;2.93;;;1.80;;
59062;SDS011;44851;45.648;9.004;2022-08-19T03:01:19;3.17;;;1.77;;
59062;SDS011;44851;45.648;9.004;2022-08-19T03:03:50;2.53;;;1.60;;
59062;SDS011;44851;45.648;9.004;2022-08-19T03:06:15;3.23;;;1.57;;
59062;SDS011;44851;45.648;9.004;2022-08-19T03:08:42;2.30;;;1.67;;
59062;SDS011;44851;45.648;9.004;2022-08-19T03:13:45;1.80;;;1.50;;
59062;SDS011;44851;45.648;9.004;2022-08-19T03:16:11;2.50;;;1.50;;
59062;SDS011;44851;45.648;9.004;2022-08-19T03:18:37;1.80;;;1.20;;
59062;SDS011;44851;45.648;9.004;2022-08-19T03:21:04;2.20;;;1.50;;
59062;SDS011;44851;45.648;9.004;2022-08-19T03:23:31;4.20;;;1.50;;
59062;SDS011;44851;45.648;9.004;2022-08-19T03:25:57;2.20;;;1.40;;
59062;SDS011;44851;45.648;9.004;2022-08-19T03:28:23;2.37;;;1.50;;
59062;SDS011;44851;45.648;9.004;2022-08-19T03:30:55;1.73;;;1.40;;
59062;SDS011;44851;45.648;9.004;2022-08-19T03:33:25;1.77;;;1.27;;
59062;SDS011;44851;45.648;9.004;2022-08-19T03:38:43;2.23;;;1.40;;
59062;SDS011;44851;45.648;9.004;2022-08-19T03:41:18;1.50;;;1.40;;
59062;SDS011;44851;45.648;9.004;2022-08-19T03:43:46;1.83;;;1.57;;
59062;SDS011;44851;45.648;9.004;2022-08-19T03:46:15;2.77;;;1.33;;
59062;SDS011;44851;45.648;9.004;2022-08-19T03:48:43;3.87;;;1.57;;
59062;SDS011;44851;45.648;9.004;2022-08-19T03:51:19;2.27;;;1.57;;
59062;SDS011;44851;45.648;9.004;2022-08-19T03:53:47;1.60;;;1.50;;
59062;SDS011;44851;45.648;9.004;2022-08-19T03:56:13;1.80;;;1.30;;
59062;SDS011;44851;45.648;9.004;2022-08-19T03:58:39;2.60;;;1.63;;
59062;SDS011;44851;45.648;9.004;2022-08-19T04:01:12;3.30;;;1.67;;
59062;SDS011;44851;45.648;9.004;2022-08-19T04:03:40;4.13;;;1.40;;
59062;SDS011;44851;45.648;9.004;2022-08-19T04:06:10;2.53;;;1.60;;
59062;SDS011;44851;45.648;9.004;2022-08-19T04:08:37;3.73;;;1.63;;
59062;SDS011;44851;45.648;9.004;2022-08-19T04:11:08;2.07;;;1.53;;
59062;SDS011;44851;45.648;9.004;2022-08-19T04:13:34;1.80;;;1.60;;
59062;SDS011;44851;45.648;9.004;2022-08-19T04:16:00;2.70;;;1.70;;
59062;SDS011;44851;45.648;9.004;2022-08-19T04:18:25;3.13;;;1.73;;
59062;SDS011;44851;45.648;9.004;2022-08-19T04:20:51;2.40;;;1.73;;
59062;SDS011;44851;45.648;9.004;2022-08-19T04:23:17;3.63;;;1.80;;
59062;SDS011;44851;45.648;9.004;2022-08-19T04:25:43;4.03;;;1.93;;
59062;SDS011;44851;45.648;9.004;2022-08-19T04:28:10;2.97;;;2.30;;
59062;SDS011;44851;45.648;9.004;2022-08-19T04:30:40;2.20;;;1.97;;
59062;SDS011;44851;45.648;9.004;2022-08-19T04:33:14;3.73;;;2.27;;
59062;SDS011;44851;45.648;9.004;2022-08-19T04:35:43;3.80;;;2.10;;
59062;SDS011;44851;45.648;9.004;2022-08-19T04:38:10;2.20;;;2.00;;
59062;SDS011;44851;45.648;9.004;2022-08-19T04:40:40;4.70;;;2.30;;
59062;SDS011;44851;45.648;9.004;2022-08-19T04:43:26;2.90;;;2.30;;
59062;SDS011;44851;45.648;9.004;2022-08-19T04:45:52;3.30;;;2.20;;
59062;SDS011;44851;45.648;9.004;2022-08-19T04:48:18;5.23;;;2.50;;
59062;SDS011;44851;45.648;9.004;2022-08-19T04:50:50;2.30;;;2.10;;
59062;SDS011;44851;45.648;9.004;2022-08-19T04:53:23;3.53;;;2.23;;
59062;SDS011;44851;45.648;9.004;2022-08-19T04:55:53;3.20;;;2.20;;
59062;SDS011;44851;45.648;9.004;2022-08-19T04:58:20;2.83;;;2.13;;
59062;SDS011;44851;45.648;9.004;2022-08-19T05:00:45;2.50;;;2.20;;
59062;SDS011;44851;45.648;9.004;2022-08-19T05:03:10;3.53;;;2.00;;
59062;SDS011;44851;45.648;9.004;2022-08-19T05:05:40;4.57;;;2.50;;
59062;SDS011;44851;45.648;9.004;2022-08-19T05:08:06;4.10;;;2.30;;
59062;SDS011;44851;45.648;9.004;2022-08-19T05:10:32;2.83;;;2.60;;
59062;SDS011;44851;45.648;9.004;2022-08-19T05:13:00;7.10;;;3.17;;
59062;SDS011;44851;45.648;9.004;2022-08-19T05:15:25;4.43;;;3.10;;
59062;SDS011;44851;45.648;9.004;2022-08-19T05:17:51;3.77;;;3.10;;
59062;SDS011;44851;45.648;9.004;2022-08-19T05:20:37;4.07;;;2.93;;
59062;SDS011;44851;45.648;9.004;2022-08-19T05:23:21;3.97;;;3.17;;
59062;SDS011;44851;45.648;9.004;2022-08-19T05:25:46;5.17;;;3.53;;
59062;SDS011;44851;45.648;9.004;2022-08-19T05:28:12;4.40;;;3.50;;
59062;SDS011;44851;45.648;9.004;2022-08-19T05:30:37;6.20;;;3.87;;
59062;SDS011;44851;45.648;9.004;2022-08-19T05:33:02;3.93;;;3.40;;
59062;SDS011;44851;45.648;9.004;2022-08-19T05:35:28;4.67;;;4.03;;
59062;SDS011;44851;45.648;9.004;2022-08-19T05:37:53;5.77;;;3.70;;
59062;SDS011;44851;45.648;9.004;2022-08-19T05:40:19;3.80;;;3.50;;
59062;SDS011;44851;45.648;9.004;2022-08-19T05:42:45;4.43;;;3.77;;
59062;SDS011;44851;45.648;9.004;2022-08-19T05:45:10;4.60;;;4.20;;
59062;SDS011;44851;45.648;9.004;2022-08-19T05:47:36;4.70;;;3.90;;
59062;SDS011;44851;45.648;9.004;2022-08-19T05:50:02;5.70;;;3.80;;
59062;SDS011;44851;45.648;9.004;2022-08-19T05:52:28;4.43;;;3.47;;
59062;SDS011;44851;45.648;9.004;2022-08-19T05:54:55;5.20;;;4.07;;
59062;SDS011;44851;45.648;9.004;2022-08-19T05:57:20;4.60;;;4.00;;
59062;SDS011;44851;45.648;9.004;2022-08-19T05:59:46;4.03;;;3.60;;
59062;SDS011;44851;45.648;9.004;2022-08-19T06:02:13;7.07;;;4.30;;
59062;SDS011;44851;45.648;9.004;2022-08-19T06:04:39;6.80;;;4.70;;
59062;SDS011;44851;45.648;9.004;2022-08-19T06:07:07;6.00;;;4.53;;
59062;SDS011;44851;45.648;9.004;2022-08-19T06:09:33;5.87;;;4.87;;
59062;SDS011;44851;45.648;9.004;2022-08-19T06:11:58;4.80;;;4.40;;
59062;SDS011;44851;45.648;9.004;2022-08-19T06:14:26;8.23;;;5.70;;
59062;SDS011;44851;45.648;9.004;2022-08-19T06:16:54;5.33;;;4.73;;
59062;SDS011;44851;45.648;9.004;2022-08-19T06:19:21;5.73;;;5.23;;
59062;SDS011;44851;45.648;9.004;2022-08-19T06:21:49;8.23;;;5.40;;
59062;SDS011;44851;45.648;9.004;2022-08-19T06:24:17;5.53;;;4.93;;
59062;SDS011;44851;45.648;9.004;2022-08-19T06:26:45;7.27;;;5.57;;
59062;SDS011;44851;45.648;9.004;2022-08-19T06:29:13;8.97;;;5.70;;
59062;SDS011;44851;45.648;9.004;2022-08-19T06:31:41;6.63;;;5.83;;
59062;SDS011;44851;45.648;9.004;2022-08-19T06:34:09;6.43;;;5.20;;
59062;SDS011;44851;45.648;9.004;2022-08-19T06:36:36;7.23;;;5.33;;
59062;SDS011;44851;45.648;9.004;2022-08-19T06:39:05;6.63;;;5.93;;
59062;SDS011;44851;45.648;9.004;2022-08-19T06:41:36;8.47;;;6.57;;
59062;SDS011;44851;45.648;9.004;2022-08-19T06:44:03;7.20;;;6.50;;
59062;SDS011;44851;45.648;9.004;2022-08-19T06:46:29;6.90;;;6.20;;
59062;SDS011;44851;45.648;9.004;2022-08-19T06:48:56;7.17;;;6.33;;
59062;SDS011;44851;45.648;9.004;2022-08-19T06:51:22;9.30;;;6.00;;
59062;SDS011;44851;45.648;9.004;2022-08-19T06:53:48;6.80;;;6.20;;
59062;SDS011;44851;45.648;9.004;2022-08-19T06:56:17;8.90;;;6.33;;
59062;SDS011;44851;45.648;9.004;2022-08-19T06:58:45;7.97;;;6.77;;
59062;SDS011;44851;45.648;9.004;2022-08-19T07:01:11;7.03;;;6.23;;
59062;SDS011;44851;45.648;9.004;2022-08-19T07:03:37;6.63;;;6.03;;
59062;SDS011;44851;45.648;9.004;2022-08-19T07:06:08;6.87;;;6.17;;
59062;SDS011;44851;45.648;9.004;2022-08-19T07:08:35;7.73;;;6.70;;
59062;SDS011;44851;45.648;9.004;2022-08-19T07:11:02;6.73;;;6.03;;
59062;SDS011;44851;45.648;9.004;2022-08-19T07:13:31;6.73;;;5.93;;
59062;SDS011;44851;45.648;9.004;2022-08-19T07:16:05;6.90;;;6.20;;
59062;SDS011;44851;45.648;9.004;2022-08-19T07:18:32;7.57;;;6.07;;
59062;SDS011;44851;45.648;9.004;2022-08-19T07:21:08;7.03;;;5.83;;
59062;SDS011;44851;45.648;9.004;2022-08-19T07:23:46;7.47;;;5.83;;
59062;SDS011;44851;45.648;9.004;2022-08-19T07:26:16;5.63;;;5.13;;
59062;SDS011;44851;45.648;9.004;2022-08-19T07:28:44;7.50;;;5.80;;
59062;SDS011;44851;45.648;9.004;2022-08-19T07:31:12;6.10;;;5.47;;
59062;SDS011;44851;45.648;9.004;2022-08-19T07:33:39;7.10;;;5.30;;
59062;SDS011;44851;45.648;9.004;2022-08-19T07:36:08;6.00;;;5.40;;
59062;SDS011;44851;45.648;9.004;2022-08-19T07:38:36;7.80;;;5.07;;
59062;SDS011;44851;45.648;9.004;2022-08-19T07:41:03;6.30;;;5.03;;
59062;SDS011;44851;45.648;9.004;2022-08-19T07:43:29;4.83;;;4.30;;
59062;SDS011;44851;45.648;9.004;2022-08-19T07:45:54;5.17;;;4.37;;
59062;SDS011;44851;45.648;9.004;2022-08-19T07:48:24;6.27;;;4.33;;
59062;SDS011;44851;45.648;9.004;2022-08-19T07:50:52;4.97;;;4.10;;
59062;SDS011;44851;45.648;9.004;2022-08-19T07:53:18;5.80;;;4.77;;
59062;SDS011;44851;45.648;9.004;2022-08-19T07:55:44;5.70;;;4.07;;
59062;SDS011;44851;45.648;9.004;2022-08-19T07:58:11;4.87;;;4.30;;
59062;SDS011;44851;45.648;9.004;2022-08-19T08:00:38;7.90;;;4.83;;
59062;SDS011;44851;45.648;9.004;2022-08-19T08:03:03;5.03;;;4.53;;
59062;SDS011;44851;45.648;9.004;2022-08-19T08:05:29;5.67;;;4.80;;
59062;SDS011;44851;45.648;9.004;2022-08-19T08:08:13;4.87;;;4.37;;
59062;SDS011;44851;45.648;9.004;2022-08-19T08:10:57;6.80;;;4.10;;
59062;SDS011;44851;45.648;9.004;2022-08-19T08:13:23;4.70;;;4.00;;
59062;SDS011;44851;45.648;9.004;2022-08-19T08:15:49;4.93;;;4.30;;
59062;SDS011;44851;45.648;9.004;2022-08-19T08:18:14;5.43;;;3.70;;
59062;SDS011;44851;45.648;9.004;2022-08-19T08:20:40;6.13;;;4.67;;
59062;SDS011;44851;45.648;9.004;2022-08-19T08:23:06;5.13;;;4.63;;
59062;SDS011;44851;45.648;9.004;2022-08-19T08:25:49;5.47;;;3.90;;
59062;SDS011;44851;45.648;9.004;2022-08-19T08:28:15;4.23;;;3.60;;
59062;SDS011;44851;45.648;9.004;2022-08-19T08:30:42;4.53;;;4.00;;
59062;SDS011;44851;45.648;9.004;2022-08-19T08:33:09;6.00;;;3.20;;
59062;SDS011;44851;45.648;9.004;2022-08-19T08:35:35;4.93;;;3.40;;
59062;SDS011;44851;45.648;9.004;2022-08-19T08:38:01;5.33;;;3.13;;
59062;SDS011;44851;45.648;9.004;2022-08-19T08:43:23;6.37;;;4.63;;
59062;SDS011;44851;45.648;9.004;2022-08-19T08:45:59;6.67;;;4.77;;
59062;SDS011;44851;45.648;9.004;2022-08-19T08:48:42;5.47;;;4.40;;
59062;SDS011;44851;45.648;9.004;2022-08-19T08:51:15;6.57;;;5.63;;
59062;SDS011;44851;45.648;9.004;2022-08-19T08:53:47;6.50;;;4.70;;
59062;SDS011;44851;45.648;9.004;2022-08-19T08:56:15;4.80;;;4.17;;
59062;SDS011;44851;45.648;9.004;2022-08-19T08:59:03;6.17;;;4.53;;
59062;SDS011;44851;45.648;9.004;2022-08-19T09:01:34;5.10;;;4.50;;
59062;SDS011;44851;45.648;9.004;2022-08-19T09:04:02;4.27;;;3.73;;
59062;SDS011;44851;45.648;9.004;2022-08-19T09:06:36;5.30;;;3.07;;
59062;SDS011;44851;45.648;9.004;2022-08-19T09:09:18;3.67;;;3.00;;
59062;SDS011;44851;45.648;9.004;2022-08-19T09:15:14;6.27;;;4.17;;
59062;SDS011;44851;45.648;9.004;2022-08-19T09:17:43;3.40;;;2.70;;
59062;SDS011;44851;45.648;9.004;2022-08-19T09:22:39;3.30;;;2.90;;
59062;SDS011;44851;45.648;9.004;2022-08-19T09:25:07;3.43;;;2.63;;
59062;SDS011;44851;45.648;9.004;2022-08-19T09:27:36;3.47;;;3.00;;
59062;SDS011;44851;45.648;9.004;2022-08-19T09:30:03;5.43;;;3.00;;
59062;SDS011;44851;45.648;9.004;2022-08-19T09:32:30;3.63;;;2.73;;
59062;SDS011;44851;45.648;9.004;2022-08-19T09:34:55;5.07;;;2.83;;
59062;SDS011;44851;45.648;9.004;2022-08-19T09:37:23;3.80;;;2.47;;
59062;SDS011;44851;45.648;9.004;2022-08-19T09:39:49;5.13;;;2.87;;
59062;SDS011;44851;45.648;9.004;2022-08-19T09:42:14;4.27;;;3.10;;
59062;SDS011;44851;45.648;9.004;2022-08-19T09:44:40;5.13;;;3.53;;
59062;SDS011;44851;45.648;9.004;2022-08-19T09:47:07;3.27;;;2.80;;
59062;SDS011;44851;45.648;9.004;2022-08-19T09:49:34;5.00;;;3.70;;
59062;SDS011;44851;45.648;9.004;2022-08-19T09:51:59;4.90;;;3.00;;
59062;SDS011;44851;45.648;9.004;2022-08-19T09:54:25;4.23;;;2.90;;
59062;SDS011;44851;45.648;9.004;2022-08-19T09:56:52;3.30;;;3.00;;
59062;SDS011;44851;45.648;9.004;2022-08-19T09:59:18;3.63;;;3.33;;
59062;SDS011;44851;45.648;9.004;2022-08-19T10:01:44;3.00;;;2.70;;
59062;SDS011;44851;45.648;9.004;2022-08-19T10:04:09;4.90;;;3.53;;
59062;SDS011;44851;45.648;9.004;2022-08-19T10:06:35;4.57;;;3.30;;
59062;SDS011;44851;45.648;9.004;2022-08-19T10:09:03;4.67;;;3.03;;
59062;SDS011;44851;45.648;9.004;2022-08-19T10:11:31;3.83;;;2.93;;
59062;SDS011;44851;45.648;9.004;2022-08-19T10:13:57;3.93;;;2.90;;
59062;SDS011;44851;45.648;9.004;2022-08-19T10:16:23;5.37;;;3.40;;
59062;SDS011;44851;45.648;9.004;2022-08-19T10:18:50;3.97;;;3.50;;
59062;SDS011;44851;45.648;9.004;2022-08-19T10:21:17;3.37;;;3.03;;
59062;SDS011;44851;45.648;9.004;2022-08-19T10:23:46;4.77;;;3.30;;
59062;SDS011;44851;45.648;9.004;2022-08-19T10:26:16;5.17;;;2.90;;
59062;SDS011;44851;45.648;9.004;2022-08-19T10:28:45;4.60;;;2.60;;
59062;SDS011;44851;45.648;9.004;2022-08-19T10:31:12;3.37;;;3.00;;
59062;SDS011;44851;45.648;9.004;2022-08-19T10:33:40;5.03;;;3.03;;
59062;SDS011;44851;45.648;9.004;2022-08-19T10:36:10;4.13;;;2.73;;
59062;SDS011;44851;45.648;9.004;2022-08-19T10:38:42;3.40;;;2.97;;
59062;SDS011;44851;45.648;9.004;2022-08-19T10:41:15;5.10;;;2.90;;
59062;SDS011;44851;45.648;9.004;2022-08-19T10:43:42;5.00;;;2.57;;
59062;SDS011;44851;45.648;9.004;2022-08-19T10:46:08;4.77;;;2.47;;
59062;SDS011;44851;45.648;9.004;2022-08-19T10:48:35;3.00;;;2.40;;
59062;SDS011;44851;45.648;9.004;2022-08-19T10:51:01;3.70;;;2.80;;
59062;SDS011;44851;45.648;9.004;2022-08-19T10:53:45;4.77;;;2.73;;
59062;SDS011;44851;45.648;9.004;2022-08-19T10:56:10;4.20;;;2.87;;
59062;SDS011;44851;45.648;9.004;2022-08-19T10:58:54;4.63;;;3.03;;
59062;SDS011;44851;45.648;9.004;2022-08-19T11:01:21;3.00;;;2.40;;
59062;SDS011;44851;45.648;9.004;2022-08-19T11:03:47;3.00;;;2.40;;
59062;SDS011;44851;45.648;9.004;2022-08-19T11:06:12;2.73;;;2.50;;
59062;SDS011;44851;45.648;9.004;2022-08-19T11:08:37;3.43;;;2.40;;
59062;SDS011;44851;45.648;9.004;2022-08-19T11:11:03;3.80;;;2.60;;
59062;SDS011;44851;45.648;9.004;2022-08-19T11:13:31;4.17;;;2.70;;
59062;SDS011;44851;45.648;9.004;2022-08-19T11:16:09;4.07;;;2.60;;
59062;SDS011;44851;45.648;9.004;2022-08-19T11:18:40;5.87;;;2.47;;
59062;SDS011;44851;45.648;9.004;2022-08-19T11:21:42;3.13;;;2.20;;
59062;SDS011;44851;45.648;9.004;2022-08-19T11:24:06;2.83;;;2.50;;
59062;SDS011;44851;45.648;9.004;2022-08-19T11:26:35;4.13;;;2.13;;
59062;SDS011;44851;45.648;9.004;2022-08-19T11:29:02;2.97;;;2.30;;
59062;SDS011;44851;45.648;9.004;2022-08-19T11:31:29;4.90;;;2.27;;
59062;SDS011;44851;45.648;9.004;2022-08-19T11:33:58;4.50;;;2.47;;
59062;SDS011;44851;45.648;9.004;2022-08-19T11:36:25;3.90;;;2.43;;
59062;SDS011;44851;45.648;9.004;2022-08-19T11:38:51;3.60;;;2.17;;
59062;SDS011;44851;45.648;9.004;2022-08-19T11:41:18;2.30;;;1.80;;
59062;SDS011;44851;45.648;9.004;2022-08-19T11:43:44;2.50;;;1.93;;
59062;SDS011;44851;45.648;9.004;2022-08-19T11:46:11;3.67;;;2.30;;
59062;SDS011;44851;45.648;9.004;2022-08-19T11:48:39;4.33;;;2.30;;
59062;SDS011;44851;45.648;9.004;2022-08-19T11:51:06;3.23;;;2.30;;
59062;SDS011;44851;45.648;9.004;2022-08-19T11:53:34;4.67;;;2.40;;
59062;SDS011;44851;45.648;9.004;2022-08-19T11:56:01;3.73;;;2.37;;
59062;SDS011;44851;45.648;9.004;2022-08-19T11:58:27;3.57;;;2.40;;
59062;SDS011;44851;45.648;9.004;2022-08-19T12:00:54;3.40;;;2.70;;
59062;SDS011;44851;45.648;9.004;2022-08-19T12:03:19;2.80;;;1.90;;
59062;SDS011;44851;45.648;9.004;2022-08-19T12:05:45;2.93;;;1.87;;
59062;SDS011;44851;45.648;9.004;2022-08-19T12:08:11;4.87;;;2.03;;
59062;SDS011;44851;45.648;9.004;2022-08-19T12:10:38;2.07;;;1.90;;
59062;SDS011;44851;45.648;9.004;2022-08-19T12:13:04;2.40;;;1.60;;
59062;SDS011;44851;45.648;9.004;2022-08-19T12:15:29;2.50;;;1.70;;
59062;SDS011;44851;45.648;9.004;2022-08-19T12:17:55;1.93;;;1.73;;
59062;SDS011;44851;45.648;9.004;2022-08-19T12:20:22;2.70;;;1.90;;
59062;SDS011;44851;45.648;9.004;2022-08-19T12:22:48;2.77;;;1.80;;
59062;SDS011;44851;45.648;9.004;2022-08-19T12:25:15;3.03;;;1.70;;
59062;SDS011;44851;45.648;9.004;2022-08-19T12:27:40;1.80;;;1.30;;
59062;SDS011;44851;45.648;9.004;2022-08-19T12:30:07;2.50;;;1.60;;
59062;SDS011;44851;45.648;9.004;2022-08-19T12:32:34;3.27;;;1.50;;
59062;SDS011;44851;45.648;9.004;2022-08-19T12:34:59;2.73;;;1.57;;
59062;SDS011;44851;45.648;9.004;2022-08-19T12:37:26;1.33;;;1.23;;
59062;SDS011;44851;45.648;9.004;2022-08-19T12:39:51;2.20;;;1.70;;
59062;SDS011;44851;45.648;9.004;2022-08-19T12:42:17;2.57;;;1.70;;
59062;SDS011;44851;45.648;9.004;2022-08-19T12:44:43;1.13;;;1.03;;
59062;SDS011;44851;45.648;9.004;2022-08-19T12:47:10;2.63;;;1.20;;
59062;SDS011;44851;45.648;9.004;2022-08-19T12:49:36;2.20;;;1.20;;
59062;SDS011;44851;45.648;9.004;2022-08-19T12:52:04;1.83;;;1.30;;
59062;SDS011;44851;45.648;9.004;2022-08-19T12:54:32;1.70;;;1.50;;
59062;SDS011;44851;45.648;9.004;2022-08-19T12:56:58;1.37;;;1.20;;
59062;SDS011;44851;45.648;9.004;2022-08-19T12:59:24;2.33;;;1.20;;
59062;SDS011;44851;45.648;9.004;2022-08-19T13:01:51;4.83;;;1.30;;
59062;SDS011;44851;45.648;9.004;2022-08-19T13:04:16;1.30;;;1.10;;
59062;SDS011;44851;45.648;9.004;2022-08-19T13:06:43;1.20;;;0.80;;
59062;SDS011;44851;45.648;9.004;2022-08-19T13:09:09;1.00;;;0.90;;
59062;SDS011;44851;45.648;9.004;2022-08-19T13:11:35;1.43;;;1.00;;
59062;SDS011;44851;45.648;9.004;2022-08-19T13:14:01;1.20;;;0.90;;
59062;SDS011;44851;45.648;9.004;2022-08-19T13:16:27;1.00;;;0.90;;
59062;SDS011;44851;45.648;9.004;2022-08-19T13:18:54;2.63;;;0.90;;
59062;SDS011;44851;45.648;9.004;2022-08-19T13:21:22;1.73;;;1.00;;
59062;SDS011;44851;45.648;9.004;2022-08-19T13:23:50;0.60;;;0.60;;
59062;SDS011;44851;45.648;9.004;2022-08-19T13:26:17;0.60;;;0.60;;
59062;SDS011;44851;45.648;9.004;2022-08-19T13:28:43;1.10;;;0.70;;
59062;SDS011;44851;45.648;9.004;2022-08-19T13:31:30;0.93;;;0.60;;
59062;SDS011;44851;45.648;9.004;2022-08-19T13:34:18;1.03;;;0.70;;
59062;SDS011;44851;45.648;9.004;2022-08-19T13:36:52;1.40;;;0.60;;
59062;SDS011;44851;45.648;9.004;2022-08-19T13:39:18;0.70;;;0.70;;
59062;SDS011;44851;45.648;9.004;2022-08-19T13:41:45;2.00;;;1.20;;
59062;SDS011;44851;45.648;9.004;2022-08-19T13:44:18;2.13;;;1.07;;
59062;SDS011;44851;45.648;9.004;2022-08-19T13:46:44;2.90;;;2.30;;
59062;SDS011;44851;45.648;9.004;2022-08-19T13:49:12;2.23;;;1.03;;
59062;SDS011;44851;45.648;9.004;2022-08-19T13:51:39;6.13;;;4.47;;
59062;SDS011;44851;45.648;9.004;2022-08-19T13:54:06;1.40;;;1.30;;
59062;SDS011;44851;45.648;9.004;2022-08-19T13:56:33;1.17;;;1.00;;
59062;SDS011;44851;45.648;9.004;2022-08-19T13:59:00;0.57;;;0.53;;
59062;SDS011;44851;45.648;9.004;2022-08-19T14:01:25;0.80;;;0.50;;
59062;SDS011;44851;45.648;9.004;2022-08-19T14:03:51;0.70;;;0.47;;
59062;SDS011;44851;45.648;9.004;2022-08-19T14:06:17;0.63;;;0.50;;
59062;SDS011;44851;45.648;9.004;2022-08-19T14:08:43;0.40;;;0.40;;
59062;SDS011;44851;45.648;9.004;2022-08-19T14:11:09;0.50;;;0.50;;
59062;SDS011;44851;45.648;9.004;2022-08-19T14:13:35;1.43;;;0.60;;
59062;SDS011;44851;45.648;9.004;2022-08-19T14:16:01;1.07;;;0.40;;
59062;SDS011;44851;45.648;9.004;2022-08-19T14:18:31;0.40;;;0.40;;
59062;SDS011;44851;45.648;9.004;2022-08-19T14:20:56;0.53;;;0.50;;
59062;SDS011;44851;45.648;9.004;2022-08-19T14:23:22;0.70;;;0.57;;
59062;SDS011;44851;45.648;9.004;2022-08-19T14:25:47;0.37;;;0.30;;
59062;SDS011;44851;45.648;9.004;2022-08-19T14:28:13;0.77;;;0.37;;
59062;SDS011;44851;45.648;9.004;2022-08-19T14:30:38;0.60;;;0.60;;
59062;SDS011;44851;45.648;9.004;2022-08-19T14:33:04;2.50;;;0.60;;
59062;SDS011;44851;45.648;9.004;2022-08-19T14:35:31;1.83;;;0.73;;
59062;SDS011;44851;45.648;9.004;2022-08-19T14:37:59;0.87;;;0.40;;
59062;SDS011;44851;45.648;9.004;2022-08-19T14:40:26;1.33;;;0.50;;
59062;SDS011;44851;45.648;9.004;2022-08-19T14:42:54;2.30;;;1.60;;
59062;SDS011;44851;45.648;9.004;2022-08-19T14:45:26;1.40;;;1.30;;
59062;SDS011;44851;45.648;9.004;2022-08-19T14:47:53;0.60;;;0.60;;
59062;SDS011;44851;45.648;9.004;2022-08-19T14:50:18;1.80;;;1.70;;
59062;SDS011;44851;45.648;9.004;2022-08-19T14:52:45;1.70;;;1.60;;
59062;SDS011;44851;45.648;9.004;2022-08-19T14:55:13;1.00;;;0.90;;
59062;SDS011;44851;45.648;9.004;2022-08-19T14:57:40;0.67;;;0.67;;
59062;SDS011;44851;45.648;9.004;2022-08-19T15:00:06;0.43;;;0.43;;
59062;SDS011;44851;45.648;9.004;2022-08-19T15:02:32;1.17;;;0.40;;
59062;SDS011;44851;45.648;9.004;2022-08-19T15:04:58;1.93;;;0.70;;
59062;SDS011;44851;45.648;9.004;2022-08-19T15:07:23;0.70;;;0.70;;